sensor_id;sensor_type;location;lat;lon;timestamp;pressure;altitude;pressure_sealevel;temperature;humidity
18167;BME280;9208;42.688;23.404;2022-07-23T00:00:44;95597.44;;;24.11;62.30
18167;BME280;9208;42.688;23.404;2022-07-23T00:03:09;95604.00;;;23.98;63.92
18167;BME280;9208;42.688;23.404;2022-07-23T00:05:35;95613.72;;;23.90;64.19
18167;BME280;9208;42.688;23.404;2022-07-23T00:08:01;95625.28;;;23.86;64.15
18167;BME280;9208;42.688;23.404;2022-07-23T00:10:26;95643.75;;;23.82;64.23
18167;BME280;9208;42.688;23.404;2022-07-23T00:12:52;95663.19;;;23.80;64.18
18167;BME280;9208;42.688;23.404;2022-07-23T00:15:17;95676.97;;;23.70;64.76
18167;BME280;9208;42.688;23.404;2022-07-23T00:17:43;95688.56;;;23.59;65.52
18167;BME280;9208;42.688;23.404;2022-07-23T00:20:08;95705.13;;;23.57;65.73
18167;BME280;9208;42.688;23.404;2022-07-23T00:22:34;95717.09;;;23.58;65.24
18167;BME280;9208;42.688;23.404;2022-07-23T00:25:00;95721.94;;;23.50;65.20
18167;BME280;9208;42.688;23.404;2022-07-23T00:27:25;95727.13;;;23.46;65.50
18167;BME280;9208;42.688;23.404;2022-07-23T00:29:50;95741.28;;;23.40;65.88
18167;BME280;9208;42.688;23.404;2022-07-23T00:32:16;95736.22;;;23.31;66.00
18167;BME280;9208;42.688;23.404;2022-07-23T00:34:41;95738.31;;;23.38;65.56
18167;BME280;9208;42.688;23.404;2022-07-23T00:37:07;95735.69;;;23.40;65.46
18167;BME280;9208;42.688;23.404;2022-07-23T00:39:32;95740.50;;;23.25;66.37
18167;BME280;9208;42.688;23.404;2022-07-23T00:41:58;95740.03;;;23.06;67.50
18167;BME280;9208;42.688;23.404;2022-07-23T00:44:25;95732.94;;;22.97;67.96
18167;BME280;9208;42.688;23.404;2022-07-23T00:46:56;95734.94;;;22.89;68.36
18167;BME280;9208;42.688;23.404;2022-07-23T00:49:26;95735.50;;;22.95;67.80
18167;BME280;9208;42.688;23.404;2022-07-23T00:51:53;95737.91;;;22.91;68.39
18167;BME280;9208;42.688;23.404;2022-07-23T00:54:19;95734.19;;;22.89;68.50
18167;BME280;9208;42.688;23.404;2022-07-23T00:56:46;95736.72;;;22.72;69.32
18167;BME280;9208;42.688;23.404;2022-07-23T00:59:12;95748.84;;;22.46;71.03
18167;BME280;9208;42.688;23.404;2022-07-23T01:01:38;95736.25;;;22.32;72.20
18167;BME280;9208;42.688;23.404;2022-07-23T01:04:04;95734.72;;;22.24;72.89
18167;BME280;9208;42.688;23.404;2022-07-23T01:06:32;95735.94;;;22.15;73.85
18167;BME280;9208;42.688;23.404;2022-07-23T01:08:59;95736.56;;;22.21;73.84
18167;BME280;9208;42.688;23.404;2022-07-23T01:11:25;95732.59;;;22.17;74.26
18167;BME280;9208;42.688;23.404;2022-07-23T01:13:50;95729.88;;;22.04;75.63
18167;BME280;9208;42.688;23.404;2022-07-23T01:16:16;95729.50;;;22.00;76.26
18167;BME280;9208;42.688;23.404;2022-07-23T01:18:41;95731.94;;;22.03;76.28
18167;BME280;9208;42.688;23.404;2022-07-23T01:21:08;95730.66;;;22.04;76.49
18167;BME280;9208;42.688;23.404;2022-07-23T01:23:35;95731.00;;;22.01;76.93
18167;BME280;9208;42.688;23.404;2022-07-23T01:26:00;95733.56;;;21.99;77.22
18167;BME280;9208;42.688;23.404;2022-07-23T01:28:25;95727.03;;;21.96;77.70
18167;BME280;9208;42.688;23.404;2022-07-23T01:30:51;95726.91;;;22.02;77.01
18167;BME280;9208;42.688;23.404;2022-07-23T01:33:16;95726.16;;;22.01;77.22
18167;BME280;9208;42.688;23.404;2022-07-23T01:35:42;95728.63;;;22.05;77.23
18167;BME280;9208;42.688;23.404;2022-07-23T01:38:07;95726.00;;;22.07;77.38
18167;BME280;9208;42.688;23.404;2022-07-23T01:40:33;95729.97;;;22.11;77.19
18167;BME280;9208;42.688;23.404;2022-07-23T01:42:58;95722.94;;;22.18;76.29
18167;BME280;9208;42.688;23.404;2022-07-23T01:45:24;95723.69;;;22.18;75.70
18167;BME280;9208;42.688;23.404;2022-07-23T01:47:49;95728.53;;;22.18;75.38
18167;BME280;9208;42.688;23.404;2022-07-23T01:50:15;95725.25;;;22.27;74.63
18167;BME280;9208;42.688;23.404;2022-07-23T01:52:40;95726.56;;;22.33;73.95
18167;BME280;9208;42.688;23.404;2022-07-23T01:55:07;95726.03;;;22.35;74.73
18167;BME280;9208;42.688;23.404;2022-07-23T01:57:32;95728.66;;;22.40;74.63
18167;BME280;9208;42.688;23.404;2022-07-23T01:59:58;95725.00;;;22.45;74.78
18167;BME280;9208;42.688;23.404;2022-07-23T02:02:24;95736.75;;;22.51;74.26
18167;BME280;9208;42.688;23.404;2022-07-23T02:04:49;95730.22;;;22.49;74.21
18167;BME280;9208;42.688;23.404;2022-07-23T02:07:14;95732.94;;;22.41;74.21
18167;BME280;9208;42.688;23.404;2022-07-23T02:09:40;95730.47;;;22.30;75.02
18167;BME280;9208;42.688;23.404;2022-07-23T02:12:05;95732.38;;;22.35;74.87
18167;BME280;9208;42.688;23.404;2022-07-23T02:14:31;95735.66;;;22.26;75.43
18167;BME280;9208;42.688;23.404;2022-07-23T02:16:56;95730.44;;;22.23;75.89
18167;BME280;9208;42.688;23.404;2022-07-23T02:19:22;95728.44;;;22.10;76.41
18167;BME280;9208;42.688;23.404;2022-07-23T02:21:48;95733.44;;;22.04;76.77
18167;BME280;9208;42.688;23.404;2022-07-23T02:24:13;95734.59;;;22.09;76.75
18167;BME280;9208;42.688;23.404;2022-07-23T02:26:39;95735.47;;;22.04;77.08
18167;BME280;9208;42.688;23.404;2022-07-23T02:29:05;95735.41;;;21.96;77.73
18167;BME280;9208;42.688;23.404;2022-07-23T02:31:31;95738.50;;;21.85;78.51
18167;BME280;9208;42.688;23.404;2022-07-23T02:33:56;95740.88;;;21.81;78.28
18167;BME280;9208;42.688;23.404;2022-07-23T02:36:22;95736.44;;;21.86;77.98
18167;BME280;9208;42.688;23.404;2022-07-23T02:38:48;95749.31;;;21.89;77.96
18167;BME280;9208;42.688;23.404;2022-07-23T02:41:13;95744.50;;;21.89;77.97
18167;BME280;9208;42.688;23.404;2022-07-23T02:43:39;95745.69;;;21.81;78.59
18167;BME280;9208;42.688;23.404;2022-07-23T02:46:04;95755.03;;;21.83;78.26
18167;BME280;9208;42.688;23.404;2022-07-23T02:48:30;95747.88;;;21.95;77.38
18167;BME280;9208;42.688;23.404;2022-07-23T02:50:55;95751.31;;;21.68;79.22
18167;BME280;9208;42.688;23.404;2022-07-23T02:53:22;95754.66;;;21.66;79.39
18167;BME280;9208;42.688;23.404;2022-07-23T02:55:48;95748.03;;;21.56;80.26
18167;BME280;9208;42.688;23.404;2022-07-23T02:58:13;95751.06;;;21.58;80.14
18167;BME280;9208;42.688;23.404;2022-07-23T03:00:39;95755.00;;;21.63;80.08
18167;BME280;9208;42.688;23.404;2022-07-23T03:03:04;95755.13;;;21.57;80.48
18167;BME280;9208;42.688;23.404;2022-07-23T03:05:30;95757.16;;;21.57;80.34
18167;BME280;9208;42.688;23.404;2022-07-23T03:07:55;95768.88;;;21.55;80.53
18167;BME280;9208;42.688;23.404;2022-07-23T03:10:21;95763.91;;;21.61;79.88
18167;BME280;9208;42.688;23.404;2022-07-23T03:12:46;95766.69;;;21.61;79.22
18167;BME280;9208;42.688;23.404;2022-07-23T03:15:11;95770.25;;;21.62;79.17
18167;BME280;9208;42.688;23.404;2022-07-23T03:17:37;95771.53;;;21.61;79.42
18167;BME280;9208;42.688;23.404;2022-07-23T03:20:02;95776.56;;;21.62;78.95
18167;BME280;9208;42.688;23.404;2022-07-23T03:22:28;95786.91;;;21.54;79.20
18167;BME280;9208;42.688;23.404;2022-07-23T03:24:53;95772.94;;;21.54;79.13
18167;BME280;9208;42.688;23.404;2022-07-23T03:27:29;95781.66;;;21.51;79.82
18167;BME280;9208;42.688;23.404;2022-07-23T03:29:57;95779.41;;;21.49;80.42
18167;BME280;9208;42.688;23.404;2022-07-23T03:32:23;95786.06;;;21.46;81.00
18167;BME280;9208;42.688;23.404;2022-07-23T03:34:49;95786.28;;;21.48;81.58
18167;BME280;9208;42.688;23.404;2022-07-23T03:37:15;95778.22;;;21.45;82.37
18167;BME280;9208;42.688;23.404;2022-07-23T03:39:40;95778.22;;;21.45;82.94
18167;BME280;9208;42.688;23.404;2022-07-23T03:42:06;95774.28;;;21.40;83.36
18167;BME280;9208;42.688;23.404;2022-07-23T03:44:32;95789.63;;;21.47;83.12
18167;BME280;9208;42.688;23.404;2022-07-23T03:46:57;95787.97;;;21.51;82.58
18167;BME280;9208;42.688;23.404;2022-07-23T03:49:23;95787.75;;;21.62;81.82
18167;BME280;9208;42.688;23.404;2022-07-23T03:51:49;95789.88;;;21.56;82.58
18167;BME280;9208;42.688;23.404;2022-07-23T03:54:14;95790.13;;;21.58;83.09
18167;BME280;9208;42.688;23.404;2022-07-23T03:56:39;95794.59;;;21.61;82.90
18167;BME280;9208;42.688;23.404;2022-07-23T03:59:05;95790.31;;;21.60;82.97
18167;BME280;9208;42.688;23.404;2022-07-23T04:01:31;95799.97;;;21.59;83.17
18167;BME280;9208;42.688;23.404;2022-07-23T04:03:56;95792.03;;;21.63;82.68
18167;BME280;9208;42.688;23.404;2022-07-23T04:06:22;95794.28;;;21.65;82.37
18167;BME280;9208;42.688;23.404;2022-07-23T04:08:47;95788.03;;;21.72;81.95
18167;BME280;9208;42.688;23.404;2022-07-23T04:11:13;95794.38;;;21.72;81.72
18167;BME280;9208;42.688;23.404;2022-07-23T04:13:38;95792.75;;;21.64;82.71
18167;BME280;9208;42.688;23.404;2022-07-23T04:16:04;95794.41;;;21.59;83.06
18167;BME280;9208;42.688;23.404;2022-07-23T04:18:33;95799.91;;;21.52;83.81
18167;BME280;9208;42.688;23.404;2022-07-23T04:20:58;95799.44;;;21.61;83.21
18167;BME280;9208;42.688;23.404;2022-07-23T04:23:24;95807.78;;;21.74;82.14
18167;BME280;9208;42.688;23.404;2022-07-23T04:25:49;95799.28;;;21.79;81.65
18167;BME280;9208;42.688;23.404;2022-07-23T04:28:15;95811.06;;;21.85;81.19
18167;BME280;9208;42.688;23.404;2022-07-23T04:30:40;95809.09;;;21.93;79.92
18167;BME280;9208;42.688;23.404;2022-07-23T04:33:06;95808.16;;;21.91;79.57
18167;BME280;9208;42.688;23.404;2022-07-23T04:35:35;95807.81;;;21.94;78.78
18167;BME280;9208;42.688;23.404;2022-07-23T04:38:02;95812.91;;;22.03;77.62
18167;BME280;9208;42.688;23.404;2022-07-23T04:40:28;95813.75;;;22.11;77.70
18167;BME280;9208;42.688;23.404;2022-07-23T04:42:53;95811.13;;;22.13;77.69
18167;BME280;9208;42.688;23.404;2022-07-23T04:45:19;95817.00;;;22.23;76.64
18167;BME280;9208;42.688;23.404;2022-07-23T04:47:44;95816.84;;;22.28;75.73
18167;BME280;9208;42.688;23.404;2022-07-23T04:50:10;95808.69;;;22.30;75.41
18167;BME280;9208;42.688;23.404;2022-07-23T04:52:35;95810.38;;;22.33;75.27
18167;BME280;9208;42.688;23.404;2022-07-23T04:55:02;95815.09;;;22.38;74.53
18167;BME280;9208;42.688;23.404;2022-07-23T04:57:27;95818.38;;;22.50;74.02
18167;BME280;9208;42.688;23.404;2022-07-23T04:59:53;95820.75;;;22.46;74.06
18167;BME280;9208;42.688;23.404;2022-07-23T05:02:18;95819.91;;;22.58;73.50
18167;BME280;9208;42.688;23.404;2022-07-23T05:04:44;95819.06;;;22.71;72.90
18167;BME280;9208;42.688;23.404;2022-07-23T05:07:09;95820.56;;;22.72;72.42
18167;BME280;9208;42.688;23.404;2022-07-23T05:09:35;95823.97;;;22.78;72.06
18167;BME280;9208;42.688;23.404;2022-07-23T05:12:00;95821.41;;;22.87;71.26
18167;BME280;9208;42.688;23.404;2022-07-23T05:14:26;95826.09;;;22.92;71.20
18167;BME280;9208;42.688;23.404;2022-07-23T05:16:53;95812.91;;;23.00;70.85
18167;BME280;9208;42.688;23.404;2022-07-23T05:19:18;95815.75;;;23.08;70.15
18167;BME280;9208;42.688;23.404;2022-07-23T05:21:43;95824.59;;;23.19;69.65
18167;BME280;9208;42.688;23.404;2022-07-23T05:24:09;95820.63;;;23.15;69.88
18167;BME280;9208;42.688;23.404;2022-07-23T05:26:34;95822.69;;;23.14;70.10
18167;BME280;9208;42.688;23.404;2022-07-23T05:29:00;95830.59;;;23.23;69.62
18167;BME280;9208;42.688;23.404;2022-07-23T05:31:25;95822.03;;;23.29;69.16
18167;BME280;9208;42.688;23.404;2022-07-23T05:33:51;95827.31;;;23.40;68.49
18167;BME280;9208;42.688;23.404;2022-07-23T05:36:16;95823.97;;;23.49;67.92
18167;BME280;9208;42.688;23.404;2022-07-23T05:38:42;95819.50;;;23.53;67.51
18167;BME280;9208;42.688;23.404;2022-07-23T05:41:10;95818.97;;;23.62;67.13
18167;BME280;9208;42.688;23.404;2022-07-23T05:43:35;95823.31;;;23.71;66.47
18167;BME280;9208;42.688;23.404;2022-07-23T05:46:01;95819.22;;;23.79;66.21
18167;BME280;9208;42.688;23.404;2022-07-23T05:48:26;95824.69;;;23.92;65.46
18167;BME280;9208;42.688;23.404;2022-07-23T05:50:52;95829.19;;;24.03;65.06
18167;BME280;9208;42.688;23.404;2022-07-23T05:53:17;95829.38;;;24.12;65.72
18167;BME280;9208;42.688;23.404;2022-07-23T05:55:43;95836.31;;;24.19;65.82
18167;BME280;9208;42.688;23.404;2022-07-23T05:58:08;95829.03;;;24.23;65.89
18167;BME280;9208;42.688;23.404;2022-07-23T06:00:34;95826.78;;;24.29;65.95
18167;BME280;9208;42.688;23.404;2022-07-23T06:03:00;95829.41;;;24.35;65.73
18167;BME280;9208;42.688;23.404;2022-07-23T06:05:25;95815.94;;;24.41;65.24
18167;BME280;9208;42.688;23.404;2022-07-23T06:07:51;95827.75;;;24.54;64.44
18167;BME280;9208;42.688;23.404;2022-07-23T06:10:16;95826.81;;;24.67;64.15
18167;BME280;9208;42.688;23.404;2022-07-23T06:12:42;95821.00;;;24.80;63.50
18167;BME280;9208;42.688;23.404;2022-07-23T06:15:08;95828.66;;;24.94;62.50
18167;BME280;9208;42.688;23.404;2022-07-23T06:17:35;95823.00;;;25.09;61.09
18167;BME280;9208;42.688;23.404;2022-07-23T06:20:00;95819.22;;;25.22;61.19
18167;BME280;9208;42.688;23.404;2022-07-23T06:22:26;95820.34;;;25.34;59.96
18167;BME280;9208;42.688;23.404;2022-07-23T06:24:51;95820.84;;;25.47;59.83
18167;BME280;9208;42.688;23.404;2022-07-23T06:27:18;95820.97;;;25.57;59.15
18167;BME280;9208;42.688;23.404;2022-07-23T06:29:43;95819.25;;;25.69;58.82
18167;BME280;9208;42.688;23.404;2022-07-23T06:32:09;95820.66;;;25.85;57.76
18167;BME280;9208;42.688;23.404;2022-07-23T06:34:34;95826.06;;;25.91;57.59
18167;BME280;9208;42.688;23.404;2022-07-23T06:37:00;95815.56;;;25.99;57.73
18167;BME280;9208;42.688;23.404;2022-07-23T06:39:28;95824.91;;;26.01;57.59
18167;BME280;9208;42.688;23.404;2022-07-23T06:41:54;95817.75;;;26.08;57.47
18167;BME280;9208;42.688;23.404;2022-07-23T06:44:19;95824.78;;;26.16;56.88
18167;BME280;9208;42.688;23.404;2022-07-23T06:46:45;95821.78;;;26.22;56.38
18167;BME280;9208;42.688;23.404;2022-07-23T06:49:10;95817.97;;;26.27;56.36
18167;BME280;9208;42.688;23.404;2022-07-23T06:51:35;95815.31;;;26.29;56.62
18167;BME280;9208;42.688;23.404;2022-07-23T06:54:02;95825.63;;;26.34;55.33
18167;BME280;9208;42.688;23.404;2022-07-23T06:56:27;95833.75;;;26.47;54.20
18167;BME280;9208;42.688;23.404;2022-07-23T06:58:53;95834.44;;;26.55;52.94
18167;BME280;9208;42.688;23.404;2022-07-23T07:01:18;95838.72;;;26.63;52.80
18167;BME280;9208;42.688;23.404;2022-07-23T07:03:44;95832.28;;;26.70;52.53
18167;BME280;9208;42.688;23.404;2022-07-23T07:06:10;95838.59;;;26.78;52.14
18167;BME280;9208;42.688;23.404;2022-07-23T07:08:35;95834.38;;;26.87;51.82
18167;BME280;9208;42.688;23.404;2022-07-23T07:11:01;95842.16;;;26.96;50.65
18167;BME280;9208;42.688;23.404;2022-07-23T07:13:26;95849.63;;;27.01;50.12
18167;BME280;9208;42.688;23.404;2022-07-23T07:15:52;95841.28;;;27.10;49.96
18167;BME280;9208;42.688;23.404;2022-07-23T07:18:17;95842.38;;;27.15;49.76
18167;BME280;9208;42.688;23.404;2022-07-23T07:20:43;95840.06;;;27.21;49.86
18167;BME280;9208;42.688;23.404;2022-07-23T07:23:09;95835.19;;;27.21;49.96
18167;BME280;9208;42.688;23.404;2022-07-23T07:25:34;95834.94;;;27.27;49.89
18167;BME280;9208;42.688;23.404;2022-07-23T07:28:00;95824.19;;;27.33;49.77
18167;BME280;9208;42.688;23.404;2022-07-23T07:30:25;95830.06;;;27.44;49.42
18167;BME280;9208;42.688;23.404;2022-07-23T07:32:51;95851.97;;;27.46;47.97
18167;BME280;9208;42.688;23.404;2022-07-23T07:35:16;95845.63;;;27.45;47.48
18167;BME280;9208;42.688;23.404;2022-07-23T07:37:42;95836.59;;;27.47;47.78
18167;BME280;9208;42.688;23.404;2022-07-23T07:40:08;95834.41;;;27.55;47.47
18167;BME280;9208;42.688;23.404;2022-07-23T07:42:33;95835.06;;;27.63;47.47
18167;BME280;9208;42.688;23.404;2022-07-23T07:44:59;95832.44;;;27.65;47.46
18167;BME280;9208;42.688;23.404;2022-07-23T07:47:24;95835.28;;;27.74;47.67
18167;BME280;9208;42.688;23.404;2022-07-23T07:49:50;95832.81;;;27.78;47.12
18167;BME280;9208;42.688;23.404;2022-07-23T07:52:15;95838.88;;;27.92;46.76
18167;BME280;9208;42.688;23.404;2022-07-23T07:54:41;95845.31;;;28.02;46.70
18167;BME280;9208;42.688;23.404;2022-07-23T07:57:08;95833.66;;;28.15;46.46
18167;BME280;9208;42.688;23.404;2022-07-23T07:59:33;95837.13;;;28.23;46.35
18167;BME280;9208;42.688;23.404;2022-07-23T08:01:58;95826.56;;;28.23;46.58
18167;BME280;9208;42.688;23.404;2022-07-23T08:04:24;95828.34;;;28.19;46.42
18167;BME280;9208;42.688;23.404;2022-07-23T08:06:49;95832.19;;;28.23;46.56
18167;BME280;9208;42.688;23.404;2022-07-23T08:09:15;95829.13;;;28.29;46.10
18167;BME280;9208;42.688;23.404;2022-07-23T08:11:40;95840.72;;;28.33;45.40
18167;BME280;9208;42.688;23.404;2022-07-23T08:14:05;95835.22;;;28.35;44.43
18167;BME280;9208;42.688;23.404;2022-07-23T08:16:31;95849.31;;;28.35;44.69
18167;BME280;9208;42.688;23.404;2022-07-23T08:18:56;95841.53;;;28.43;44.37
18167;BME280;9208;42.688;23.404;2022-07-23T08:21:22;95843.19;;;28.55;44.33
18167;BME280;9208;42.688;23.404;2022-07-23T08:23:47;95843.56;;;28.69;43.67
18167;BME280;9208;42.688;23.404;2022-07-23T08:26:13;95855.78;;;28.81;43.15
18167;BME280;9208;42.688;23.404;2022-07-23T08:28:38;95858.16;;;28.94;43.09
18167;BME280;9208;42.688;23.404;2022-07-23T08:31:04;95853.66;;;29.08;42.55
18167;BME280;9208;42.688;23.404;2022-07-23T08:33:30;95876.53;;;29.21;41.68
18167;BME280;9208;42.688;23.404;2022-07-23T08:35:56;95883.25;;;29.35;41.14
18167;BME280;9208;42.688;23.404;2022-07-23T08:38:22;95882.06;;;29.48;40.91
18167;BME280;9208;42.688;23.404;2022-07-23T08:40:50;95886.59;;;29.60;40.83
18167;BME280;9208;42.688;23.404;2022-07-23T08:43:18;95897.44;;;29.73;40.35
18167;BME280;9208;42.688;23.404;2022-07-23T08:45:47;95895.50;;;29.85;40.24
18167;BME280;9208;42.688;23.404;2022-07-23T08:48:17;95895.19;;;29.91;39.64
18167;BME280;9208;42.688;23.404;2022-07-23T08:50:48;95885.22;;;29.90;39.72
18167;BME280;9208;42.688;23.404;2022-07-23T08:53:15;95883.72;;;29.98;40.11
18167;BME280;9208;42.688;23.404;2022-07-23T08:55:45;95889.84;;;30.04;39.79
18167;BME280;9208;42.688;23.404;2022-07-23T08:58:11;95896.84;;;30.13;39.35
18167;BME280;9208;42.688;23.404;2022-07-23T09:00:37;95898.75;;;30.20;38.28
18167;BME280;9208;42.688;23.404;2022-07-23T09:03:02;95906.34;;;30.27;38.31
18167;BME280;9208;42.688;23.404;2022-07-23T09:05:28;95906.75;;;30.33;37.98
18167;BME280;9208;42.688;23.404;2022-07-23T09:10:48;95905.84;;;30.49;37.77
18167;BME280;9208;42.688;23.404;2022-07-23T09:13:30;95912.06;;;30.57;37.33
18167;BME280;9208;42.688;23.404;2022-07-23T09:16:01;95918.28;;;30.65;36.69
18167;BME280;9208;42.688;23.404;2022-07-23T09:18:31;95913.53;;;30.77;36.73
18167;BME280;9208;42.688;23.404;2022-07-23T09:21:14;95928.19;;;30.95;36.52
18167;BME280;9208;42.688;23.404;2022-07-23T09:23:49;95929.03;;;31.07;35.98
18167;BME280;9208;42.688;23.404;2022-07-23T09:28:52;95940.44;;;31.18;35.14
18167;BME280;9208;42.688;23.404;2022-07-23T09:31:19;95946.56;;;31.24;34.55
18167;BME280;9208;42.688;23.404;2022-07-23T09:33:45;95951.31;;;31.31;34.04
18167;BME280;9208;42.688;23.404;2022-07-23T09:36:29;95956.44;;;31.44;33.55
18167;BME280;9208;42.688;23.404;2022-07-23T09:38:55;95963.56;;;31.55;33.29
18167;BME280;9208;42.688;23.404;2022-07-23T09:41:20;95972.56;;;31.63;33.20
18167;BME280;9208;42.688;23.404;2022-07-23T09:43:46;95957.59;;;31.72;33.27
18167;BME280;9208;42.688;23.404;2022-07-23T09:46:22;95958.31;;;31.82;32.76
18167;BME280;9208;42.688;23.404;2022-07-23T09:48:50;95986.47;;;31.89;31.08
18167;BME280;9208;42.688;23.404;2022-07-23T09:51:17;96005.03;;;32.02;30.34
18167;BME280;9208;42.688;23.404;2022-07-23T09:53:48;95995.97;;;32.15;30.79
18167;BME280;9208;42.688;23.404;2022-07-23T09:56:14;95999.34;;;32.23;30.50
18167;BME280;9208;42.688;23.404;2022-07-23T09:58:41;95998.66;;;32.34;30.54
18167;BME280;9208;42.688;23.404;2022-07-23T10:01:20;95984.25;;;32.42;30.75
18167;BME280;9208;42.688;23.404;2022-07-23T10:03:47;95975.78;;;32.53;30.74
18167;BME280;9208;42.688;23.404;2022-07-23T10:06:13;95997.66;;;32.62;29.36
18167;BME280;9208;42.688;23.404;2022-07-23T10:08:43;96007.72;;;32.75;29.24
18167;BME280;9208;42.688;23.404;2022-07-23T10:11:10;96010.34;;;32.82;28.93
18167;BME280;9208;42.688;23.404;2022-07-23T10:13:38;95999.34;;;32.88;29.09
18167;BME280;9208;42.688;23.404;2022-07-23T10:16:26;95986.66;;;33.01;29.51
18167;BME280;9208;42.688;23.404;2022-07-23T10:18:52;95980.25;;;33.12;29.30
18167;BME280;9208;42.688;23.404;2022-07-23T10:29:46;95993.50;;;33.53;28.12
18167;BME280;9208;42.688;23.404;2022-07-23T10:41:04;96034.69;;;33.87;26.17
18167;BME280;9208;42.688;23.404;2022-07-23T10:43:30;96019.44;;;33.94;26.85
18167;BME280;9208;42.688;23.404;2022-07-23T10:46:25;96014.47;;;34.06;26.78
18167;BME280;9208;42.688;23.404;2022-07-23T10:49:32;96007.25;;;34.16;25.97
18167;BME280;9208;42.688;23.404;2022-07-23T10:52:20;96014.91;;;34.25;25.83
18167;BME280;9208;42.688;23.404;2022-07-23T10:57:18;96007.94;;;34.40;25.53
18167;BME280;9208;42.688;23.404;2022-07-23T11:02:38;96002.47;;;34.44;25.50
18167;BME280;9208;42.688;23.404;2022-07-23T11:05:09;96002.47;;;34.44;25.41
18167;BME280;9208;42.688;23.404;2022-07-23T11:07:37;95999.00;;;34.45;24.97
18167;BME280;9208;42.688;23.404;2022-07-23T11:10:39;96006.88;;;34.58;24.69
18167;BME280;9208;42.688;23.404;2022-07-23T11:16:20;96015.66;;;34.62;23.87
18167;BME280;9208;42.688;23.404;2022-07-23T11:24:06;96023.16;;;34.81;23.69
18167;BME280;9208;42.688;23.404;2022-07-23T11:34:45;96017.22;;;35.15;23.43
18167;BME280;9208;42.688;23.404;2022-07-23T11:39:56;96024.34;;;35.28;22.11
18167;BME280;9208;42.688;23.404;2022-07-23T11:42:23;96028.38;;;35.36;22.15
18167;BME280;9208;42.688;23.404;2022-07-23T11:44:49;96028.50;;;35.38;22.27
18167;BME280;9208;42.688;23.404;2022-07-23T11:47:21;96025.88;;;35.42;22.21
18167;BME280;9208;42.688;23.404;2022-07-23T11:49:58;96008.84;;;35.44;22.55
18167;BME280;9208;42.688;23.404;2022-07-23T11:52:24;96023.31;;;35.48;21.81
18167;BME280;9208;42.688;23.404;2022-07-23T11:57:19;96019.31;;;35.40;22.24
18167;BME280;9208;42.688;23.404;2022-07-23T11:59:47;96019.31;;;35.40;21.68
18167;BME280;9208;42.688;23.404;2022-07-23T12:02:13;96025.31;;;35.32;21.85
18167;BME280;9208;42.688;23.404;2022-07-23T12:04:39;96017.03;;;35.25;22.04
18167;BME280;9208;42.688;23.404;2022-07-23T12:07:34;96006.69;;;35.18;21.97
18167;BME280;9208;42.688;23.404;2022-07-23T12:10:20;96003.41;;;35.23;22.19
18167;BME280;9208;42.688;23.404;2022-07-23T12:12:47;95987.28;;;35.28;22.39
18167;BME280;9208;42.688;23.404;2022-07-23T12:15:20;95995.44;;;35.33;21.77
18167;BME280;9208;42.688;23.404;2022-07-23T12:17:48;96001.44;;;35.39;20.97
18167;BME280;9208;42.688;23.404;2022-07-23T12:20:23;96009.06;;;35.48;20.83
18167;BME280;9208;42.688;23.404;2022-07-23T12:22:56;96014.34;;;35.54;20.48
18167;BME280;9208;42.688;23.404;2022-07-23T12:25:23;96038.34;;;35.62;19.17
18167;BME280;9208;42.688;23.404;2022-07-23T12:28:01;96038.38;;;35.76;19.73
18167;BME280;9208;42.688;23.404;2022-07-23T12:33:11;96022.00;;;35.76;20.24
18167;BME280;9208;42.688;23.404;2022-07-23T12:35:42;96019.34;;;35.80;20.18
18167;BME280;9208;42.688;23.404;2022-07-23T12:38:12;96008.44;;;35.90;20.20
18167;BME280;9208;42.688;23.404;2022-07-23T12:40:58;96029.81;;;35.89;19.05
18167;BME280;9208;42.688;23.404;2022-07-23T12:43:29;96031.19;;;35.88;18.85
18167;BME280;9208;42.688;23.404;2022-07-23T12:48:38;96022.84;;;35.92;19.46
18167;BME280;9208;42.688;23.404;2022-07-23T12:53:43;96025.16;;;36.09;18.69
18167;BME280;9208;42.688;23.404;2022-07-23T12:56:11;96030.31;;;36.13;18.59
18167;BME280;9208;42.688;23.404;2022-07-23T12:58:56;96034.03;;;36.15;17.78
18167;BME280;9208;42.688;23.404;2022-07-23T13:01:26;96032.34;;;36.24;17.88
18167;BME280;9208;42.688;23.404;2022-07-23T13:06:29;96043.97;;;36.28;17.07
18167;BME280;9208;42.688;23.404;2022-07-23T13:08:55;96035.84;;;36.22;17.16
18167;BME280;9208;42.688;23.404;2022-07-23T13:11:20;96028.22;;;36.13;17.28
18167;BME280;9208;42.688;23.404;2022-07-23T13:13:47;96042.66;;;36.17;17.11
18167;BME280;9208;42.688;23.404;2022-07-23T13:16:12;96026.53;;;36.22;16.84
18167;BME280;9208;42.688;23.404;2022-07-23T13:18:38;96013.38;;;36.30;17.31
18167;BME280;9208;42.688;23.404;2022-07-23T13:21:03;96014.97;;;36.33;17.00
18167;BME280;9208;42.688;23.404;2022-07-23T13:23:29;96033.38;;;36.30;15.56
18167;BME280;9208;42.688;23.404;2022-07-23T13:25:55;96022.78;;;36.33;15.12
18167;BME280;9208;42.688;23.404;2022-07-23T13:28:21;95939.25;;;36.32;15.26
18167;BME280;9208;42.688;23.404;2022-07-23T13:30:48;95904.44;;;36.36;15.32
18167;BME280;9208;42.688;23.404;2022-07-23T13:33:16;95886.66;;;36.37;16.22
18167;BME280;9208;42.688;23.404;2022-07-23T13:35:42;95856.25;;;36.28;17.15
18167;BME280;9208;42.688;23.404;2022-07-23T13:38:08;95850.13;;;36.20;16.66
18167;BME280;9208;42.688;23.404;2022-07-23T13:40:39;95835.00;;;36.18;17.56
18167;BME280;9208;42.688;23.404;2022-07-23T13:43:06;95838.28;;;36.12;16.53
18167;BME280;9208;42.688;23.404;2022-07-23T13:45:33;95836.94;;;36.13;16.64
18167;BME280;9208;42.688;23.404;2022-07-23T13:47:58;95833.13;;;36.09;16.37
18167;BME280;9208;42.688;23.404;2022-07-23T13:50:24;95830.09;;;36.05;16.75
18167;BME280;9208;42.688;23.404;2022-07-23T13:52:49;95821.88;;;35.97;16.65
18167;BME280;9208;42.688;23.404;2022-07-23T13:55:15;95819.38;;;35.90;16.75
18167;BME280;9208;42.688;23.404;2022-07-23T13:57:40;95811.00;;;35.94;17.27
18167;BME280;9208;42.688;23.404;2022-07-23T14:00:07;95809.81;;;35.99;17.39